Time;durP1;ratioP1;P1;durP2;ratioP2;P2;SDS_P1;SDS_P2;PMS_P1;PMS_P2;Temp;Humidity;BMP_temperature;BMP_pressure;BME280_temperature;BME280_humidity;BME280_pressure;Samples;Min_cycle;Max_cycle;Signal;HPM_P1;HPM_P2
2023/07/04 00:00:17;;;;;;;;;;;;;;;-144.99;100.00;52344.16;5024879;28;20365;-70
2023/07/04 00:02:45;;;;;;;;;;;;;;;-144.99;100.00;52325.81;5033272;28;19925;-70
2023/07/04 00:05:13;;;;;;;;;;;;;;;-144.99;100.00;52321.72;5033628;28;19925;-70
2023/07/04 00:07:41;;;;;;;;;;;;;;;-144.99;100.00;52325.81;5022713;28;20382;-71
2023/07/04 00:10:08;;;;;;;;;;;;;;;-144.99;100.00;52358.41;5027475;28;20343;-71
2023/07/04 00:12:35;;;;;;;;;;;;;;;-144.99;100.00;52313.56;5026525;28;20303;-72
2023/07/04 00:15:02;;;;;;;;;;;;;;;-144.99;100.00;52346.19;5022174;28;19993;-69
2023/07/04 00:17:29;;;;;;;;;;;;;;;-144.99;100.00;52370.63;5022030;28;19944;-69
2023/07/04 00:19:55;;;;;;;;;;;;;;;-144.99;100.00;52333.94;5020305;28;20004;-70
2023/07/04 00:22:24;;;;;;;;;;;;;;;-144.99;100.00;52342.09;5029743;28;20020;-70
2023/07/04 00:24:50;;;;;;;;;;;;;;;-144.99;100.00;52350.25;5026122;28;20139;-69
2023/07/04 00:27:17;;;;;;;;;;;;;;;-144.99;100.00;52342.09;5021874;28;19957;-68
2023/07/04 00:29:43;;;;;;;;;;;;;;;-144.99;100.00;52338.03;5029134;28;20004;-69
2023/07/04 00:32:09;;;;;;;;;;;;;;;-144.99;100.00;52352.28;5024780;28;19965;-69
2023/07/04 00:34:36;;;;;;;;;;;;;;;-144.99;100.00;52346.19;5028709;28;20002;-70
2023/07/04 00:37:03;;;;;;;;;;;;;;;-144.99;100.00;52333.94;5033111;28;20054;-69
2023/07/04 00:39:30;;;;;;;;;;;;;;;-144.99;100.00;52354.34;5022055;28;19929;-69
2023/07/04 00:42:02;;;;;;;;;;;;;;;-144.99;100.00;52329.88;5029319;28;20098;-69
2023/07/04 00:44:30;;;;;;;;;;;;;;;-144.99;100.00;52370.63;5018563;28;19929;-69
2023/07/04 00:47:06;;;;;;;;;;;;;;;-144.99;100.00;52346.19;5020549;28;20056;-69
2023/07/04 00:49:41;;;;;;;;;;;;;;;-144.99;100.00;52391.03;5026556;28;19929;-70
2023/07/04 00:52:09;;;;;;;;;;;;;;;-144.99;100.00;52329.88;5023084;28;19926;-70
2023/07/04 00:54:40;;;;;;;;;;;;;;;-144.99;100.00;52364.53;5018047;28;20020;-70
2023/07/04 00:57:07;;;;;;;;;;;;;;;-144.99;100.00;52297.25;5021867;28;19926;-70
2023/07/04 00:59:34;;;;;;;;;;;;;;;-144.99;100.00;52348.22;5014764;28;19984;-69
2023/07/04 01:02:01;;;;;;;;;;;;;;;-144.99;100.00;52317.66;5026263;28;20365;-70
2023/07/04 01:04:28;;;;;;;;;;;;;;;-144.99;100.00;52354.34;5020166;28;20011;-69
2023/07/04 01:06:59;;;;;;;;;;;;;;;-144.99;100.00;52378.78;5020601;28;19968;-69
2023/07/04 01:09:26;;;;;;;;;;;;;;;-144.99;100.00;52370.63;5028194;28;19969;-67
2023/07/04 01:11:54;;;;;;;;;;;;;;;-144.99;100.00;52309.50;5015063;28;20463;-68
2023/07/04 01:14:22;;;;;;;;;;;;;;;-144.99;100.00;52338.03;5022649;28;20019;-67
2023/07/04 01:16:49;;;;;;;;;;;;;;;-144.99;100.00;52354.34;5018526;28;19987;-68
2023/07/04 01:19:20;;;;;;;;;;;;;;;-144.99;100.00;52301.34;5028263;28;19929;-68
2023/07/04 01:21:49;;;;;;;;;;;;;;;-144.99;100.00;52333.94;5032346;28;19984;-68
2023/07/04 01:24:19;;;;;;;;;;;;;;;-144.99;100.00;52340.06;5022747;28;20399;-69
2023/07/04 01:26:49;;;;;;;;;;;;;;;-144.99;100.00;52333.94;5029912;28;19929;-68
2023/07/04 01:29:17;;;;;;;;;;;;;;;-144.99;100.00;52346.19;5011418;28;19926;-68
2023/07/04 01:31:44;;;;;;;;;;;;;;;-144.99;100.00;52333.94;5027600;28;20101;-69
2023/07/04 01:34:11;;;;;;;;;;;;;;;-144.99;100.00;52362.50;5022345;28;19931;-68
2023/07/04 01:36:40;;;;;;;;;;;;;;;-144.99;100.00;52358.41;5014962;28;19944;-68
2023/07/04 01:39:08;;;;;;;;;;;;;;;-144.99;100.00;52331.91;5029626;28;20028;-68
2023/07/04 01:41:35;;;;;;;;;;;;;;;-144.99;100.00;52354.34;5020785;28;19947;-68
2023/07/04 01:44:05;;;;;;;;;;;;;;;-144.99;100.00;52329.88;5017349;28;19929;-68
2023/07/04 01:46:32;;;;;;;;;;;;;;;-144.99;100.00;52374.72;5012738;28;20348;-68
2023/07/04 01:48:59;;;;;;;;;;;;;;;-144.99;100.00;52338.03;5022574;28;19929;-68
2023/07/04 01:51:28;;;;;;;;;;;;;;;-144.99;100.00;52358.41;5024792;28;19925;-68
2023/07/04 01:53:54;;;;;;;;;;;;;;;-144.99;100.00;52399.19;5028021;28;19929;-68
2023/07/04 01:56:21;;;;;;;;;;;;;;;-144.99;100.00;52372.69;5019742;28;19934;-68
2023/07/04 01:58:48;;;;;;;;;;;;;;;-144.99;100.00;52366.56;5022870;28;19937;-68
2023/07/04 02:01:16;;;;;;;;;;;;;;;-144.99;100.00;52374.72;5024731;28;20405;-68
2023/07/04 02:03:43;;;;;;;;;;;;;;;-144.99;100.00;52354.34;5019966;28;19925;-68
2023/07/04 02:06:09;;;;;;;;;;;;;;;-144.99;100.00;52342.09;5025517;28;19936;-68
2023/07/04 02:08:36;;;;;;;;;;;;;;;-144.99;100.00;52329.88;5020448;28;19929;-68
2023/07/04 02:11:03;;;;;;;;;;;;;;;-144.99;100.00;52374.72;5029186;28;19929;-68
2023/07/04 02:13:29;;;;;;;;;;;;;;;-144.99;100.00;52342.09;5023577;28;19929;-68
2023/07/04 02:15:56;;;;;;;;;;;;;;;-144.99;100.00;52333.94;5021685;28;20337;-68
2023/07/04 02:18:24;;;;;;;;;;;;;;;-144.99;100.00;52358.41;5026817;28;19974;-68
2023/07/04 02:20:51;;;;;;;;;;;;;;;-144.99;100.00;52350.25;5026479;28;20457;-68
2023/07/04 02:23:18;;;;;;;;;;;;;;;-144.99;100.00;52358.41;5028070;28;20354;-67
2023/07/04 02:25:44;;;;;;;;;;;;;;;-144.99;100.00;52364.53;5023540;28;20310;-67
2023/07/04 02:28:11;;;;;;;;;;;;;;;-144.99;100.00;52346.19;5026940;28;20035;-67
2023/07/04 02:30:38;;;;;;;;;;;;;;;-144.99;100.00;52321.72;5016139;28;19925;-67
2023/07/04 02:33:05;;;;;;;;;;;;;;;-144.99;100.00;52321.72;5028164;28;20420;-67
2023/07/04 02:35:33;;;;;;;;;;;;;;;-144.99;100.00;52362.50;5021580;28;19930;-67
2023/07/04 02:37:59;;;;;;;;;;;;;;;-144.99;100.00;52362.50;5018669;28;20382;-68
2023/07/04 02:40:26;;;;;;;;;;;;;;;-144.99;100.00;52350.25;5013855;28;19972;-68
2023/07/04 02:42:53;;;;;;;;;;;;;;;-144.99;100.00;52386.94;5020626;28;20363;-68
2023/07/04 02:45:19;;;;;;;;;;;;;;;-144.99;100.00;52333.94;5008583;28;19926;-67
2023/07/04 02:47:46;;;;;;;;;;;;;;;-144.99;100.00;52338.03;5024279;28;20420;-67
2023/07/04 02:50:12;;;;;;;;;;;;;;;-144.99;100.00;52329.88;5023471;28;19932;-68
2023/07/04 02:52:41;;;;;;;;;;;;;;;-144.99;100.00;52350.25;5009516;28;19936;-68
2023/07/04 02:55:08;;;;;;;;;;;;;;;-144.99;100.00;52342.09;5017402;28;19925;-70
2023/07/04 02:57:34;;;;;;;;;;;;;;;-144.99;100.00;52362.50;5019318;28;19940;-70
2023/07/04 03:00:01;;;;;;;;;;;;;;;-144.99;100.00;52352.28;5020544;28;20282;-70
2023/07/04 03:02:28;;;;;;;;;;;;;;;-144.99;100.00;52354.34;5015986;28;19930;-69
2023/07/04 03:04:55;;;;;;;;;;;;;;;-144.99;100.00;52350.25;5023545;28;19929;-69
2023/07/04 03:07:21;;;;;;;;;;;;;;;-144.99;100.00;52358.41;5022213;28;19925;-69
2023/07/04 03:09:49;;;;;;;;;;;;;;;-144.99;100.00;52333.94;5017110;28;19928;-69
2023/07/04 03:12:16;;;;;;;;;;;;;;;-144.99;100.00;52370.63;5023508;28;19925;-69
2023/07/04 03:14:43;;;;;;;;;;;;;;;-144.99;100.00;52374.72;5024437;28;19952;-71
2023/07/04 03:17:10;;;;;;;;;;;;;;;-144.99;100.00;52338.03;5019576;28;19926;-70
2023/07/04 03:19:37;;;;;;;;;;;;;;;-144.99;100.00;52366.56;5012187;28;20017;-72
2023/07/04 03:22:03;;;;;;;;;;;;;;;-144.99;100.00;52354.34;5019074;28;19952;-70
2023/07/04 03:24:30;;;;;;;;;;;;;;;-144.99;100.00;52386.94;5017693;28;20062;-69
2023/07/04 03:26:58;;;;;;;;;;;;;;;-144.99;100.00;52370.63;5009693;28;20453;-70
2023/07/04 03:29:25;;;;;;;;;;;;;;;-144.99;100.00;52386.94;5009036;28;19995;-71
2023/07/04 03:31:52;;;;;;;;;;;;;;;-144.99;100.00;52346.19;5016963;28;19952;-68
2023/07/04 03:34:18;;;;;;;;;;;;;;;-144.99;100.00;52356.38;5026799;28;19975;-68
2023/07/04 03:36:45;;;;;;;;;;;;;;;-144.99;100.00;52289.13;5017652;28;20417;-69
2023/07/04 03:39:12;;;;;;;;;;;;;;;-144.99;100.00;52350.25;5022744;28;20298;-68
2023/07/04 03:41:38;;;;;;;;;;;;;;;-144.99;100.00;52313.56;5015358;28;19971;-69
2023/07/04 03:44:07;;;;;;;;;;;;;;;-144.99;100.00;52374.72;5017669;28;19926;-68
2023/07/04 03:46:34;;;;;;;;;;;;;;;-144.99;100.00;52362.50;5019080;28;20520;-68
2023/07/04 03:49:00;;;;;;;;;;;;;;;-144.99;100.00;52346.19;5023768;28;20001;-67
2023/07/04 03:51:27;;;;;;;;;;;;;;;-144.99;100.00;52376.75;5028280;28;20310;-68
2023/07/04 03:53:54;;;;;;;;;;;;;;;-144.99;100.00;52358.41;5021489;28;19948;-68
2023/07/04 03:56:20;;;;;;;;;;;;;;;-144.99;100.00;52313.56;5018688;28;19926;-67
2023/07/04 03:58:47;;;;;;;;;;;;;;;-144.99;100.00;52346.19;5016601;28;19937;-68
2023/07/04 04:01:15;;;;;;;;;;;;;;;-144.99;100.00;52354.34;5013426;28;19930;-67
2023/07/04 04:03:42;;;;;;;;;;;;;;;-144.99;100.00;52313.56;5023898;28;19984;-68
2023/07/04 04:06:09;;;;;;;;;;;;;;;-144.99;100.00;52325.81;5018662;28;20091;-68
2023/07/04 04:08:36;;;;;;;;;;;;;;;-144.99;100.00;52329.88;5021963;28;19926;-68
2023/07/04 04:11:03;;;;;;;;;;;;;;;-144.99;100.00;52358.41;5016910;28;19929;-68
2023/07/04 04:13:30;;;;;;;;;;;;;;;-144.99;100.00;52378.78;5025408;28;19925;-68
2023/07/04 04:15:56;;;;;;;;;;;;;;;-144.99;100.00;52344.16;5017417;28;20346;-68
2023/07/04 04:18:24;;;;;;;;;;;;;;;-144.99;100.00;52329.88;5013320;28;19936;-67
2023/07/04 04:20:51;;;;;;;;;;;;;;;-144.99;100.00;52346.19;5020264;28;19931;-67
2023/07/04 04:23:18;;;;;;;;;;;;;;;-144.99;100.00;52338.03;5014044;28;20398;-67
2023/07/04 04:25:45;;;;;;;;;;;;;;;-144.99;100.00;52354.34;5011608;28;19973;-67
2023/07/04 04:28:12;;;;;;;;;;;;;;;-144.99;100.00;52325.81;5017921;28;19942;-67
2023/07/04 04:30:39;;;;;;;;;;;;;;;-144.99;100.00;52317.66;5017651;28;19927;-66
2023/07/04 04:33:05;;;;;;;;;;;;;;;-144.99;100.00;52350.25;5018091;28;19949;-67
2023/07/04 04:35:34;;;;;;;;;;;;;;;-144.99;100.00;52321.72;5024702;28;20377;-67
2023/07/04 04:38:00;;;;;;;;;;;;;;;-144.99;100.00;52358.41;5032555;28;19929;-67
2023/07/04 04:40:28;;;;;;;;;;;;;;;-144.99;100.00;52366.56;5021476;28;19929;-67
2023/07/04 04:42:55;;;;;;;;;;;;;;;-144.99;100.00;52305.41;5025128;28;20373;-67
2023/07/04 04:45:23;;;;;;;;;;;;;;;-144.99;100.00;52303.38;5028312;28;20340;-67
2023/07/04 04:47:52;;;;;;;;;;;;;;;-144.99;100.00;52344.16;5031812;28;20370;-67
2023/07/04 04:50:19;;;;;;;;;;;;;;;-144.99;100.00;52338.03;5019926;28;19992;-66
2023/07/04 04:52:47;;;;;;;;;;;;;;;-144.99;100.00;52331.91;5031714;28;19929;-67
2023/07/04 04:55:14;;;;;;;;;;;;;;;-144.99;100.00;52358.41;5026034;28;19933;-67
2023/07/04 04:57:41;;;;;;;;;;;;;;;-144.99;100.00;52329.88;5022185;28;19926;-67
2023/07/04 05:00:08;;;;;;;;;;;;;;;-144.99;100.00;52313.56;5024630;28;19954;-71
2023/07/04 05:02:35;;;;;;;;;;;;;;;-144.99;100.00;52327.84;5015188;28;19929;-72
2023/07/04 05:05:02;;;;;;;;;;;;;;;-144.99;100.00;52313.56;5020086;28;20021;-69
2023/07/04 05:07:29;;;;;;;;;;;;;;;-144.99;100.00;52325.81;5026030;28;20017;-69
2023/07/04 05:09:58;;;;;;;;;;;;;;;-144.99;100.00;52313.56;5021209;28;19925;-68
2023/07/04 05:12:25;;;;;;;;;;;;;;;-144.99;100.00;52313.56;5022622;28;19973;-69
2023/07/04 05:14:52;;;;;;;;;;;;;;;-144.99;100.00;52323.75;5022321;28;20374;-69
2023/07/04 05:17:18;;;;;;;;;;;;;;;-144.99;100.00;52293.19;5019439;28;19933;-71
2023/07/04 05:19:47;;;;;;;;;;;;;;;-144.99;100.00;52313.56;5015300;28;19929;-68
2023/07/04 05:22:14;;;;;;;;;;;;;;;-144.99;100.00;52354.34;5015260;28;20304;-69
2023/07/04 05:24:41;;;;;;;;;;;;;;;-144.99;100.00;52293.19;5024632;28;19925;-69
2023/07/04 05:27:09;;;;;;;;;;;;;;;-144.99;100.00;52329.88;5015188;28;19932;-69
2023/07/04 05:29:35;;;;;;;;;;;;;;;-144.99;99.81;52313.56;5016301;28;19965;-71
2023/07/04 05:32:02;;;;;;;;;;;;;;;-144.99;99.48;52293.19;5018733;28;20114;-67
2023/07/04 05:34:29;;;;;;;;;;;;;;;-144.99;99.40;52340.06;5020347;28;19929;-68
2023/07/04 05:36:55;;;;;;;;;;;;;;;-144.99;98.77;52315.59;5023313;28;19932;-69
2023/07/04 05:39:22;;;;;;;;;;;;;;;-144.99;98.89;52293.19;5022014;28;20329;-68
2023/07/04 05:41:48;;;;;;;;;;;;;;;-144.99;99.22;52301.34;5019423;28;19925;-67
2023/07/04 05:44:19;;;;;;;;;;;;;;;-144.99;98.72;52329.88;5027051;28;19976;-67
2023/07/04 05:46:45;;;;;;;;;;;;;;;-144.99;97.56;52321.72;5028590;28;19999;-67
2023/07/04 05:49:12;;;;;;;;;;;;;;;-144.99;97.34;52350.25;5019455;28;20316;-67
2023/07/04 05:51:39;;;;;;;;;;;;;;;-144.99;96.86;52305.41;5019686;28;19991;-67
2023/07/04 05:54:05;;;;;;;;;;;;;;;-144.99;96.56;52305.41;5025369;28;19929;-68
2023/07/04 05:56:32;;;;;;;;;;;;;;;-144.99;95.82;52297.25;5021448;28;19929;-67
2023/07/04 05:58:59;;;;;;;;;;;;;;;-144.99;95.23;52319.69;5024629;28;19988;-67
2023/07/04 06:01:29;;;;;;;;;;;;;;;-144.99;94.55;52333.94;5015980;28;19929;-68
2023/07/04 06:03:56;;;;;;;;;;;;;;;-144.99;94.71;52315.59;5019312;28;19929;-67
2023/07/04 06:06:25;;;;;;;;;;;;;;;-144.99;93.78;52299.31;5015603;28;19971;-67
2023/07/04 06:08:52;;;;;;;;;;;;;;;-144.99;93.94;52305.41;5022600;28;19929;-67
2023/07/04 06:11:20;;;;;;;;;;;;;;;-144.99;93.33;52301.34;5011321;28;19933;-67
2023/07/04 06:13:46;;;;;;;;;;;;;;;-144.99;92.02;52317.66;5025181;28;19932;-67
2023/07/04 06:16:13;;;;;;;;;;;;;;;-144.99;91.68;52329.88;5023816;28;19925;-67
2023/07/04 06:18:43;;;;;;;;;;;;;;;-144.99;90.52;52331.91;5028598;28;19925;-68
2023/07/04 06:21:10;;;;;;;;;;;;;;;-144.99;90.01;52338.03;5024124;28;19971;-67
2023/07/04 06:23:37;;;;;;;;;;;;;;;-144.99;89.72;52305.41;5021706;28;19989;-67
2023/07/04 06:26:04;;;;;;;;;;;;;;;-144.99;88.71;52256.50;5023950;28;19925;-67
2023/07/04 06:28:31;;;;;;;;;;;;;;;-144.99;88.81;52280.97;5018341;28;19929;-74
2023/07/04 06:30:58;;;;;;;;;;;;;;;-144.99;87.29;52325.81;5023788;28;19936;-68
2023/07/04 06:33:26;;;;;;;;;;;;;;;-144.99;86.85;52280.97;5028694;28;19959;-69
2023/07/04 06:35:54;;;;;;;;;;;;;;;-144.99;86.48;52240.19;5024822;28;19925;-67
2023/07/04 06:38:21;;;;;;;;;;;;;;;-144.99;85.98;52280.97;5010917;28;20401;-67
2023/07/04 06:40:55;;;;;;;;;;;;;;;-144.99;85.52;52291.16;5024879;28;19929;-68
2023/07/04 06:43:21;;;;;;;;;;;;;;;-144.99;84.94;52276.88;5018223;28;19932;-68
2023/07/04 06:45:48;;;;;;;;;;;;;;;-144.99;84.26;52248.34;5022257;28;19933;-68
2023/07/04 06:48:14;;;;;;;;;;;;;;;-144.99;85.16;52248.34;5029228;28;19929;-68
2023/07/04 06:50:42;;;;;;;;;;;;;;;-144.99;84.04;52268.72;5027461;28;19929;-67
2023/07/04 06:53:10;;;;;;;;;;;;;;;-144.99;83.25;52246.31;5023277;28;20030;-67
2023/07/04 06:55:36;;;;;;;;;;;;;;;-144.99;83.18;52248.34;5016334;28;19940;-67
2023/07/04 06:58:04;;;;;;;;;;;;;;;-144.99;83.91;52280.97;5024413;28;19929;-68
2023/07/04 07:00:30;;;;;;;;;;;;;;;-144.99;84.54;52285.03;5019896;28;20317;-67
2023/07/04 07:02:57;;;;;;;;;;;;;;;-144.99;84.19;52276.88;5024471;28;19956;-68
2023/07/04 07:05:24;;;;;;;;;;;;;;;-144.99;84.16;52313.56;5019872;28;19925;-67
2023/07/04 07:07:50;;;;;;;;;;;;;;;-144.99;83.78;52276.88;5017071;28;19925;-68
2023/07/04 07:10:19;;;;;;;;;;;;;;;-144.99;84.30;52254.47;5020193;28;20183;-67
2023/07/04 07:12:45;;;;;;;;;;;;;;;-144.99;84.36;52264.66;5017741;28;19951;-67
2023/07/04 07:15:12;;;;;;;;;;;;;;;-144.99;84.04;52280.97;5027557;28;19948;-67
2023/07/04 07:17:39;;;;;;;;;;;;;;;-144.99;83.84;52285.03;5021731;28;20012;-68
2023/07/04 07:20:06;;;;;;;;;;;;;;;-144.99;83.64;52280.97;5030847;28;20208;-69
2023/07/04 07:22:33;;;;;;;;;;;;;;;-144.99;82.42;52221.84;5029901;28;19929;-69
2023/07/04 07:24:59;;;;;;;;;;;;;;;-144.99;81.35;52213.69;5020059;28;19940;-69
2023/07/04 07:27:27;;;;;;;;;;;;;;;-144.99;80.91;52215.75;5006400;28;20410;-69
2023/07/04 07:29:54;;;;;;;;;;;;;;;-144.99;80.30;52236.13;5025750;28;19925;-70
2023/07/04 07:32:20;;;;;;;;;;;;;;;-144.99;79.84;52268.72;5025820;28;19925;-68
2023/07/04 07:34:47;;;;;;;;;;;;;;;-144.99;79.51;52276.88;5013828;28;19929;-68
2023/07/04 07:37:14;;;;;;;;;;;;;;;-144.99;80.40;52250.38;5026405;28;19925;-68
2023/07/04 07:39:42;;;;;;;;;;;;;;;-144.99;80.64;52291.16;5025199;28;19926;-67
2023/07/04 07:42:10;;;;;;;;;;;;;;;-144.99;79.66;52264.66;5025832;28;20366;-71
2023/07/04 07:44:38;;;;;;;;;;;;;;;-144.99;79.40;52244.28;5014565;28;19937;-71
2023/07/04 07:47:05;;;;;;;;;;;;;;;-144.99;79.45;52293.19;5023933;28;19935;-70
2023/07/04 07:49:31;;;;;;;;;;;;;;;-144.99;79.49;52252.44;5022828;28;19936;-69
2023/07/04 07:51:58;;;;;;;;;;;;;;;-144.99;79.02;52248.34;5013966;28;19929;-68
2023/07/04 07:54:24;;;;;;;;;;;;;;;-144.99;79.68;52268.72;5010179;28;19926;-69
2023/07/04 07:56:51;;;;;;;;;;;;;;;-144.99;79.51;52236.13;5012651;28;20004;-68
2023/07/04 07:59:17;;;;;;;;;;;;;;;-144.99;79.37;52289.13;5024272;28;19933;-68
2023/07/04 08:01:46;;;;;;;;;;;;;;;-144.99;79.37;52258.53;5021358;28;20489;-69
2023/07/04 08:04:12;;;;;;;;;;;;;;;-144.99;79.63;52264.66;5025232;28;19933;-69
2023/07/04 08:06:40;;;;;;;;;;;;;;;-144.99;79.05;52295.22;5024150;28;19936;-68
2023/07/04 08:09:08;;;;;;;;;;;;;;;-144.99;80.20;52227.97;5016558;28;19925;-69
2023/07/04 08:11:35;;;;;;;;;;;;;;;-144.99;79.00;52268.72;5027761;28;19940;-70
2023/07/04 08:14:02;;;;;;;;;;;;;;;-144.99;79.42;52240.19;5024601;28;20001;-69
2023/07/04 08:16:29;;;;;;;;;;;;;;;-144.99;77.26;52260.56;5025438;28;19936;-70
2023/07/04 08:18:57;;;;;;;;;;;;;;;-144.99;77.05;52232.03;5015350;28;20292;-69
2023/07/04 08:21:24;;;;;;;;;;;;;;;-144.99;78.09;52248.34;5021219;28;19925;-70
2023/07/04 08:23:51;;;;;;;;;;;;;;;-144.99;77.80;52215.75;5017476;28;19980;-69
2023/07/04 08:26:18;;;;;;;;;;;;;;;-144.99;76.56;52280.97;5028110;28;19936;-71
2023/07/04 08:28:45;;;;;;;;;;;;;;;-144.99;76.46;52252.44;5020004;28;19951;-69
2023/07/04 08:31:12;;;;;;;;;;;;;;;-144.99;76.48;52223.88;5028770;28;19925;-70
2023/07/04 08:33:38;;;;;;;;;;;;;;;-144.99;75.51;52252.44;5023112;28;20026;-69
2023/07/04 08:36:07;;;;;;;;;;;;;;;-144.99;76.45;52252.44;5023353;28;20089;-69
2023/07/04 08:38:34;;;;;;;;;;;;;;;-144.99;73.76;52242.22;5028615;28;19936;-69
2023/07/04 08:41:01;;;;;;;;;;;;;;;-144.99;72.92;52213.69;5013449;28;19932;-69
2023/07/04 08:43:31;;;;;;;;;;;;;;;-144.99;72.87;52244.28;5017266;28;19929;-69
2023/07/04 08:45:57;;;;;;;;;;;;;;;-144.99;72.12;52240.19;5027944;28;19939;-69
2023/07/04 08:48:26;;;;;;;;;;;;;;;-144.99;72.26;52260.56;5018303;28;19937;-70
2023/07/04 08:50:55;;;;;;;;;;;;;;;-144.99;72.53;52252.44;5021221;28;19947;-70
2023/07/04 08:53:23;;;;;;;;;;;;;;;-144.99;73.50;52252.44;5027971;28;20031;-70
2023/07/04 08:55:56;;;;;;;;;;;;;;;-144.99;73.14;52244.28;5025790;28;19980;-70
2023/07/04 08:58:25;;;;;;;;;;;;;;;-144.99;73.86;52289.13;5015926;28;20413;-69
2023/07/04 09:00:53;;;;;;;;;;;;;;;-144.99;74.75;52268.72;5021307;28;20310;-69
2023/07/04 09:03:26;;;;;;;;;;;;;;;-144.99;77.25;52313.56;5017331;28;19936;-71
2023/07/04 09:05:58;;;;;;;;;;;;;;;-144.99;81.47;52313.56;5027853;28;19932;-69
2023/07/04 09:08:33;;;;;;;;;;;;;;;-144.99;87.83;52358.41;5053982;22;20316;-71
2023/07/04 09:11:02;;;;;;;;;;;;;;;-144.99;90.46;52340.06;5063594;28;20276;-72
2023/07/04 09:13:31;;;;;;;;;;;;;;;-144.99;92.78;52366.56;5067422;28;19924;-71
2023/07/04 09:15:59;;;;;;;;;;;;;;;-144.99;94.07;52350.25;5065918;28;19933;-72
2023/07/04 09:18:31;;;;;;;;;;;;;;;-144.99;94.39;52317.66;5068466;28;20059;-71
2023/07/04 09:21:04;;;;;;;;;;;;;;;-144.99;96.16;52313.56;5066617;28;19939;-72
2023/07/04 09:23:32;;;;;;;;;;;;;;;-144.99;95.24;52317.66;5068350;28;19924;-71
2023/07/04 09:25:59;;;;;;;;;;;;;;;-144.99;96.61;52293.19;5067358;28;19966;-70
2023/07/04 09:28:26;;;;;;;;;;;;;;;-144.99;92.79;52317.66;5067756;28;19928;-71
2023/07/04 09:30:53;;;;;;;;;;;;;;;-144.99;92.37;52244.28;5068091;28;19936;-71
2023/07/04 09:33:21;;;;;;;;;;;;;;;-144.99;89.42;52252.44;5067489;28;19979;-71
2023/07/04 09:35:48;;;;;;;;;;;;;;;-144.99;86.37;52287.06;5065922;28;19925;-71
2023/07/04 09:38:15;;;;;;;;;;;;;;;-144.99;84.94;52207.59;5062702;28;19928;-71
2023/07/04 09:40:44;;;;;;;;;;;;;;;-144.99;85.12;52256.50;5067462;28;20317;-70
2023/07/04 09:43:12;;;;;;;;;;;;;;;-144.99;85.47;52252.44;5069501;28;19964;-71
2023/07/04 09:45:39;;;;;;;;;;;;;;;-144.99;82.16;52211.66;5067671;28;19932;-71
2023/07/04 09:48:07;;;;;;;;;;;;;;;-144.99;81.41;52244.28;5066749;28;19928;-70
2023/07/04 09:50:36;;;;;;;;;;;;;;;-144.99;78.59;52207.59;5067026;28;19924;-70
2023/07/04 09:53:04;;;;;;;;;;;;;;;-144.99;77.65;52268.72;5064596;28;19988;-71
2023/07/04 09:55:32;;;;;;;;;;;;;;;-144.99;77.30;52244.28;5067056;28;19971;-70
2023/07/04 09:58:13;;;;;;;;;;;;;;;-144.99;77.35;52240.19;5066672;28;20466;-68
2023/07/04 10:00:44;;;;;;;;;;;;;;;-144.99;76.78;52238.16;5064329;28;19929;-69
2023/07/04 10:03:10;;;;;;;;;;;;;;;-144.99;76.29;52236.13;5062985;28;19944;-70
2023/07/04 10:05:37;;;;;;;;;;;;;;;-144.99;75.48;52244.28;5066760;28;19924;-69
2023/07/04 10:08:06;;;;;;;;;;;;;;;-144.99;74.32;52203.50;5066783;28;20094;-69
2023/07/04 10:10:35;;;;;;;;;;;;;;;-144.99;73.60;52244.28;5067107;28;19951;-69
2023/07/04 10:13:02;;;;;;;;;;;;;;;-144.99;71.68;52238.16;5066880;28;20425;-69
2023/07/04 10:15:36;;;;;;;;;;;;;;;-144.99;72.61;52276.88;5066732;28;19928;-69
2023/07/04 10:18:05;;;;;;;;;;;;;;;-144.99;75.22;52240.19;5065543;28;20007;-69
2023/07/04 10:20:36;;;;;;;;;;;;;;;-144.99;76.29;52264.66;5066248;28;19943;-70
2023/07/04 10:23:03;;;;;;;;;;;;;;;-144.99;75.62;52227.97;5067108;28;20419;-69
2023/07/04 10:25:30;;;;;;;;;;;;;;;-144.99;74.25;52244.28;5066513;28;19964;-69
2023/07/04 10:27:58;;;;;;;;;;;;;;;-144.99;72.54;52219.81;5066441;28;19955;-69
2023/07/04 10:30:29;;;;;;;;;;;;;;;-144.99;70.56;52179.06;5067198;28;19924;-69
2023/07/04 10:32:58;;;;;;;;;;;;;;;-144.99;70.35;52170.91;5066832;28;19992;-70
2023/07/04 10:35:28;;;;;;;;;;;;;;;-144.99;70.19;52227.97;5066804;28;19928;-71
2023/07/04 10:37:58;;;;;;;;;;;;;;;-144.99;71.12;52256.50;5066609;28;19940;-70
2023/07/04 10:40:26;;;;;;;;;;;;;;;-144.99;69.59;52240.19;5066281;28;19925;-70
2023/07/04 10:42:54;;;;;;;;;;;;;;;-144.99;69.98;52270.78;5068264;28;19932;-70
2023/07/04 10:45:23;;;;;;;;;;;;;;;-144.99;70.05;52325.81;5066757;28;20390;-68
2023/07/04 10:47:52;;;;;;;;;;;;;;;-144.99;70.26;52295.22;5066213;28;19939;-70
2023/07/04 10:50:22;;;;;;;;;;;;;;;-144.99;71.02;52309.50;5064217;28;19964;-69
2023/07/04 10:52:50;;;;;;;;;;;;;;;-144.99;70.25;52325.81;5066448;28;19932;-70
2023/07/04 10:55:19;;;;;;;;;;;;;;;-144.99;71.12;52280.97;5066405;28;19947;-70
2023/07/04 10:57:47;;;;;;;;;;;;;;;-144.99;72.12;52313.56;5065720;28;19925;-70
2023/07/04 11:00:18;;;;;;;;;;;;;;;-144.99;73.68;52333.94;5065813;28;19932;-72
2023/07/04 11:02:48;;;;;;;;;;;;;;;-144.99;76.94;52315.59;5066322;28;19929;-73
2023/07/04 11:05:20;;;;;;;;;;;;;;;-144.99;78.70;52213.69;5059680;28;19935;-71
2023/07/04 11:07:48;;;;;;;;;;;;;;;-144.99;79.81;52272.81;5066177;28;19935;-72
2023/07/04 11:10:16;;;;;;;;;;;;;;;-144.99;80.08;52301.34;5067020;28;19935;-71
2023/07/04 11:12:45;;;;;;;;;;;;;;;-144.99;79.30;52309.50;5065625;28;20282;-71
2023/07/04 11:15:21;;;;;;;;;;;;;;;-144.99;79.87;52321.72;5066352;28;19924;-72
2023/07/04 11:17:48;;;;;;;;;;;;;;;-144.99;81.35;52305.41;5064390;28;19924;-71
2023/07/04 11:20:17;;;;;;;;;;;;;;;-144.99;80.77;52329.88;5064759;28;20667;-72
2023/07/04 11:22:53;;;;;;;;;;;;;;;-144.99;80.96;52256.50;5064618;28;19951;-72
2023/07/04 11:25:30;;;;;;;;;;;;;;;-144.99;80.42;52280.97;5066485;28;19924;-72
2023/07/04 11:28:12;;;;;;;;;;;;;;;-144.99;80.55;52305.41;5066008;28;19932;-71
2023/07/04 11:30:41;;;;;;;;;;;;;;;-144.99;81.05;52342.09;5059963;28;19932;-70
2023/07/04 11:33:08;;;;;;;;;;;;;;;-144.99;81.23;52344.16;5065510;28;20358;-71
2023/07/04 11:35:37;;;;;;;;;;;;;;;-144.99;82.21;52362.50;5063342;28;19929;-70
2023/07/04 11:38:05;;;;;;;;;;;;;;;-144.99;82.86;52338.03;5065953;28;19928;-70
2023/07/04 11:40:43;;;;;;;;;;;;;;;-144.99;83.45;52338.03;5065566;28;20329;-71
2023/07/04 11:43:19;;;;;;;;;;;;;;;-144.99;84.17;52360.44;5067345;28;19925;-72
2023/07/04 11:45:46;;;;;;;;;;;;;;;-144.99;84.14;52338.03;5064996;28;19928;-70
2023/07/04 11:48:16;;;;;;;;;;;;;;;-144.99;83.20;52323.75;5065249;28;19928;-71
2023/07/04 11:50:44;;;;;;;;;;;;;;;-144.99;81.40;52285.03;5065079;28;20396;-70
2023/07/04 11:53:14;;;;;;;;;;;;;;;-144.99;79.67;52215.75;5066205;28;19931;-71
2023/07/04 11:55:42;;;;;;;;;;;;;;;-144.99;79.59;52179.06;5059910;28;19932;-71
2023/07/04 11:58:19;;;;;;;;;;;;;;;-144.99;76.47;52207.59;5064649;28;19940;-72
2023/07/04 12:01:05;;;;;;;;;;;;;;;-144.99;73.39;52191.28;5065504;28;19935;-70
2023/07/04 12:03:39;;;;;;;;;;;;;;;-144.99;71.20;52156.63;5066026;28;20377;-71
2023/07/04 12:06:05;;;;;;;;;;;;;;;-144.99;70.79;52215.75;5075581;28;19925;-71
2023/07/04 12:08:35;;;;;;;;;;;;;;;-144.99;70.30;52227.97;5074554;28;19931;-71
2023/07/04 12:11:05;;;;;;;;;;;;;;;-144.99;69.86;52264.66;5068125;28;19928;-72
2023/07/04 12:13:34;;;;;;;;;;;;;;;-144.99;70.87;52295.22;5065482;28;20009;-70
2023/07/04 12:16:01;;;;;;;;;;;;;;;-144.99;71.59;52313.56;5065330;28;20007;-70
2023/07/04 12:18:29;;;;;;;;;;;;;;;-144.99;72.51;52331.91;5064817;28;20332;-70
2023/07/04 12:20:57;;;;;;;;;;;;;;;-144.99;74.63;52368.59;5063819;28;19924;-70
2023/07/04 12:23:24;;;;;;;;;;;;;;;-144.99;77.92;52366.56;5065707;28;19947;-69
2023/07/04 12:25:51;;;;;;;;;;;;;;;-144.99;82.23;52415.47;5065389;28;19925;-70